createdAt,value
2023-03-15T00:01:22.794Z,3.30
2023-03-15T00:03:57.657Z,3.03
2023-03-15T00:09:28.811Z,3.10
2023-03-15T00:11:59.793Z,4.00
2023-03-15T00:14:38.110Z,3.08
2023-03-15T00:17:16.520Z,3.05
2023-03-15T00:19:55.335Z,3.53
2023-03-15T00:22:30.962Z,4.72
2023-03-15T00:25:10.990Z,3.67
2023-03-15T00:30:28.307Z,3.58
2023-03-15T00:33:27.061Z,4.00
2023-03-15T00:36:40.291Z,4.05
2023-03-15T00:39:28.653Z,3.40
2023-03-15T00:41:57.586Z,3.40
2023-03-15T00:44:35.806Z,3.03
2023-03-15T00:47:12.510Z,3.78
2023-03-15T00:49:48.374Z,3.55
2023-03-15T00:52:24.666Z,3.70
2023-03-15T00:55:22.387Z,2.85
2023-03-15T00:57:55.298Z,3.00
2023-03-15T01:00:28.641Z,2.42
2023-03-15T01:03:02.532Z,2.00
2023-03-15T01:05:38.018Z,0.80
2023-03-15T01:08:07.879Z,1.35
2023-03-15T01:10:41.962Z,1.33
2023-03-15T01:13:10.585Z,1.33
2023-03-15T01:18:45.272Z,10.05
2023-03-15T01:21:17.221Z,1.38
2023-03-15T01:23:48.204Z,1.20
2023-03-15T01:26:18.460Z,1.40
2023-03-15T01:28:48.332Z,1.63
2023-03-15T01:31:23.518Z,1.80
2023-03-15T01:33:56.349Z,1.60
2023-03-15T01:38:57.580Z,2.03
2023-03-15T01:41:31.492Z,2.00
2023-03-15T01:44:01.818Z,1.55
2023-03-15T01:46:38.122Z,2.15
2023-03-15T01:49:29.212Z,1.85
2023-03-15T01:52:02.934Z,2.10
2023-03-15T01:54:51.029Z,2.17
2023-03-15T01:57:33.027Z,2.25
2023-03-15T02:00:17.950Z,2.80
2023-03-15T02:03:00.487Z,2.65
2023-03-15T02:05:39.964Z,2.70
2023-03-15T02:08:09.434Z,3.30
2023-03-15T02:10:44.190Z,3.33
2023-03-15T02:13:16.983Z,3.70
2023-03-15T02:15:47.997Z,4.13
2023-03-15T02:18:26.560Z,4.00
2023-03-15T02:21:06.493Z,4.35
2023-03-15T02:23:38.055Z,4.32
2023-03-15T02:26:30.637Z,4.35
2023-03-15T02:29:01.922Z,4.22
2023-03-15T02:31:40.987Z,4.55
2023-03-15T02:34:11.289Z,4.75
2023-03-15T02:36:42.325Z,4.32
2023-03-15T02:39:21.404Z,4.15
2023-03-15T02:41:56.874Z,4.82
2023-03-15T02:44:37.353Z,4.32
2023-03-15T02:47:24.556Z,4.50
2023-03-15T02:49:57.678Z,4.50
2023-03-15T02:52:26.506Z,4.78
2023-03-15T02:54:55.874Z,4.45
2023-03-15T02:57:23.981Z,4.68
2023-03-15T02:59:52.025Z,4.05
2023-03-15T03:02:20.275Z,4.43
2023-03-15T03:04:48.825Z,4.32
2023-03-15T03:07:21.492Z,4.70
2023-03-15T03:09:55.952Z,4.93
2023-03-15T03:12:28.183Z,4.38
2023-03-15T03:14:57.373Z,4.45
2023-03-15T03:17:28.183Z,4.13
2023-03-15T03:20:01.482Z,4.53
2023-03-15T03:22:35.573Z,4.22
2023-03-15T03:25:04.506Z,3.88
2023-03-15T03:27:32.121Z,4.50
2023-03-15T03:30:09.280Z,4.70
2023-03-15T03:32:37.785Z,4.78
2023-03-15T03:35:07.154Z,4.75
2023-03-15T03:37:36.023Z,4.63
2023-03-15T03:40:11.687Z,4.70
2023-03-15T03:42:42.251Z,4.20
2023-03-15T03:45:10.091Z,5.03
2023-03-15T03:47:42.878Z,4.03
2023-03-15T03:50:15.022Z,4.75
2023-03-15T03:52:45.166Z,4.32
2023-03-15T03:55:25.580Z,4.82
2023-03-15T03:57:56.503Z,4.80
2023-03-15T04:00:43.991Z,4.90
2023-03-15T04:03:15.002Z,5.13
2023-03-15T04:05:47.036Z,4.93
2023-03-15T04:08:19.458Z,5.60
2023-03-15T04:13:40.165Z,5.57
2023-03-15T04:16:09.327Z,6.28
2023-03-15T04:18:52.442Z,6.00
2023-03-15T04:21:23.360Z,6.07
2023-03-15T04:23:58.885Z,5.78
2023-03-15T04:26:42.139Z,6.43
2023-03-15T04:29:34.567Z,5.20
2023-03-15T04:32:25.941Z,6.63
2023-03-15T04:35:14.545Z,6.13
2023-03-15T04:37:48.965Z,5.90
2023-03-15T04:40:47.930Z,6.75
2023-03-15T04:43:45.275Z,6.45
2023-03-15T04:46:40.755Z,6.57
2023-03-15T04:49:22.258Z,6.32
2023-03-15T04:52:25.129Z,7.35
2023-03-15T04:55:07.753Z,6.82
2023-03-15T04:57:47.362Z,7.28
2023-03-15T05:00:38.063Z,7.15
2023-03-15T05:03:31.558Z,7.10
2023-03-15T05:06:12.317Z,7.82
2023-03-15T05:09:07.988Z,7.97
2023-03-15T05:11:52.724Z,8.27
2023-03-15T05:14:55.539Z,7.95
2023-03-15T05:17:59.958Z,7.97
2023-03-15T05:20:52.261Z,8.40
2023-03-15T05:23:41.188Z,8.63
2023-03-15T05:26:29.532Z,8.98
2023-03-15T05:29:14.442Z,8.95
2023-03-15T05:32:05.014Z,8.23
2023-03-15T05:34:44.130Z,8.48
2023-03-15T05:37:24.475Z,8.75
2023-03-15T05:40:12.715Z,8.68
2023-03-15T05:42:49.307Z,9.13
2023-03-15T05:45:36.634Z,9.27
2023-03-15T05:51:22.020Z,9.68
2023-03-15T05:54:10.957Z,9.27
2023-03-15T05:57:07.663Z,8.65
2023-03-15T05:59:55.020Z,8.60
2023-03-15T06:02:45.061Z,8.60
2023-03-15T06:11:33.724Z,9.13
2023-03-15T06:14:04.228Z,9.50
2023-03-15T06:16:49.189Z,9.50
2023-03-15T06:19:25.188Z,10.05
2023-03-15T06:25:20.607Z,9.38
2023-03-15T06:27:53.225Z,9.70
2023-03-15T06:33:56.598Z,10.13
2023-03-15T06:36:31.333Z,10.07
2023-03-15T06:38:58.892Z,10.80
2023-03-15T06:41:27.052Z,11.02
2023-03-15T06:44:02.943Z,10.30
2023-03-15T06:46:34.424Z,10.40
2023-03-15T06:49:09.874Z,10.18
2023-03-15T06:55:08.935Z,10.00
2023-03-15T06:57:42.903Z,9.95
2023-03-15T07:00:25.641Z,9.70
2023-03-15T07:02:59.061Z,9.82
2023-03-15T07:05:29.088Z,9.23
2023-03-15T07:07:59.557Z,9.93
2023-03-15T07:10:31.207Z,9.98
2023-03-15T07:13:07.723Z,8.90
2023-03-15T07:16:50.146Z,8.93
2023-03-15T07:22:58.850Z,8.75
2023-03-15T07:25:54.081Z,9.43
2023-03-15T07:44:31.034Z,8.70
2023-03-15T07:47:17.507Z,8.88
2023-03-15T07:49:59.810Z,8.25
2023-03-15T07:53:05.932Z,9.23
2023-03-15T08:03:09.627Z,8.23
2023-03-15T08:12:12.834Z,8.18
2023-03-15T08:14:47.650Z,26.92
2023-03-15T08:20:16.335Z,7.80
2023-03-15T08:22:49.223Z,8.05
2023-03-15T08:25:21.082Z,8.13
2023-03-15T08:27:49.109Z,7.68
2023-03-15T08:30:27.585Z,8.38
2023-03-15T08:32:58.789Z,7.65
2023-03-15T08:35:29.812Z,7.60
2023-03-15T08:37:57.362Z,6.85
2023-03-15T08:40:26.555Z,6.28
2023-03-15T08:42:58.276Z,5.75
2023-03-15T08:45:28.756Z,6.37
2023-03-15T08:48:04.816Z,5.53
2023-03-15T08:53:22.354Z,5.50
2023-03-15T08:55:52.856Z,5.22
2023-03-15T08:58:22.881Z,5.75
2023-03-15T09:00:51.983Z,6.38
2023-03-15T09:03:24.269Z,5.43
2023-03-15T09:05:58.821Z,5.47
2023-03-15T09:08:30.492Z,5.07
2023-03-15T09:10:58.658Z,5.63
2023-03-15T09:13:32.294Z,5.47
2023-03-15T09:16:03.912Z,5.88
2023-03-15T10:07:45.801Z,2.50
2023-03-15T10:10:42.118Z,2.42
2023-03-15T10:13:40.736Z,2.72
2023-03-15T10:16:56.477Z,2.80
2023-03-15T10:23:07.507Z,4.18
2023-03-15T10:25:52.600Z,3.90
2023-03-15T10:28:58.449Z,3.70
2023-03-15T10:31:53.912Z,3.92
2023-03-15T10:34:34.828Z,2.90
2023-03-15T10:37:39.588Z,2.97
2023-03-15T10:40:18.431Z,3.40
2023-03-15T10:42:49.493Z,3.40
2023-03-15T10:45:45.118Z,3.20
2023-03-15T10:48:19.903Z,3.08
2023-03-15T10:51:04.244Z,2.90
2023-03-15T10:53:33.921Z,3.47
2023-03-15T10:59:24.185Z,3.05
2023-03-15T11:02:33.119Z,2.50
2023-03-15T11:05:22.310Z,3.10
2023-03-15T11:10:58.002Z,2.35
2023-03-15T11:13:38.167Z,2.22
2023-03-15T11:16:18.285Z,1.98
2023-03-15T11:19:03.006Z,2.28
2023-03-15T11:27:34.576Z,1.33
2023-03-15T11:31:16.380Z,2.10
2023-03-15T11:40:55.246Z,1.33
2023-03-15T11:44:13.502Z,1.50
2023-03-15T12:28:44.696Z,1.20
2023-03-15T13:47:33.006Z,0.98
2023-03-15T13:50:40.029Z,1.25
2023-03-15T13:57:03.203Z,1.40
2023-03-15T14:00:04.378Z,1.55
2023-03-15T14:02:51.279Z,1.50
2023-03-15T14:08:39.073Z,1.42
2023-03-15T14:21:12.949Z,1.42
2023-03-15T14:23:48.607Z,1.40
2023-03-15T14:26:30.387Z,1.27
2023-03-15T14:33:36.118Z,1.80
2023-03-15T14:36:10.172Z,1.33
2023-03-15T14:38:39.889Z,1.58
2023-03-15T14:41:21.831Z,1.27
2023-03-15T14:43:49.799Z,1.33
2023-03-15T14:46:18.438Z,1.17
2023-03-15T14:48:46.071Z,1.33
2023-03-15T14:51:18.029Z,1.20
2023-03-15T14:53:49.812Z,1.45
2023-03-15T14:56:19.580Z,1.42
2023-03-15T14:58:46.779Z,1.50
2023-03-15T15:01:19.827Z,1.55
2023-03-15T15:04:01.716Z,1.70
2023-03-15T15:06:36.921Z,1.30
2023-03-15T15:09:06.015Z,1.40
2023-03-15T15:11:34.130Z,1.02
2023-03-15T15:14:02.180Z,1.25
2023-03-15T15:16:29.703Z,1.20
2023-03-15T15:18:57.057Z,1.40
2023-03-15T15:21:28.082Z,1.45
2023-03-15T15:23:59.384Z,1.30
2023-03-15T15:26:28.975Z,1.00
2023-03-15T15:28:56.666Z,1.23
2023-03-15T15:31:25.768Z,1.20
2023-03-15T15:33:55.219Z,1.30
2023-03-15T15:36:41.597Z,1.73
2023-03-15T15:39:25.107Z,1.58
2023-03-15T15:41:52.067Z,1.55
2023-03-15T15:44:22.353Z,1.65
2023-03-15T15:46:50.785Z,1.58
2023-03-15T15:49:19.433Z,1.70
2023-03-15T15:51:52.220Z,1.70
2023-03-15T15:54:27.909Z,1.80
2023-03-15T15:57:00.707Z,1.40
2023-03-15T15:59:28.099Z,1.50
2023-03-15T16:02:01.765Z,2.05
2023-03-15T16:04:31.212Z,2.10
2023-03-15T16:07:02.284Z,1.95
2023-03-15T16:09:33.730Z,2.33
2023-03-15T16:12:02.160Z,2.30
2023-03-15T16:14:32.216Z,2.20
2023-03-15T16:17:00.261Z,2.30
2023-03-15T16:19:27.203Z,2.10
2023-03-15T16:21:55.675Z,1.90
2023-03-15T16:24:29.020Z,1.75
2023-03-15T16:27:01.553Z,1.42
2023-03-15T16:32:17.605Z,1.95
2023-03-15T16:34:52.357Z,1.80
2023-03-15T16:37:29.857Z,1.90
2023-03-15T16:39:59.789Z,1.77
2023-03-15T16:42:28.109Z,1.77
2023-03-15T16:44:55.182Z,1.73
2023-03-15T16:47:22.429Z,1.85
2023-03-15T16:49:49.523Z,1.83
2023-03-15T16:52:18.108Z,1.70
2023-03-15T16:54:48.416Z,1.95
2023-03-15T16:57:42.743Z,1.90
2023-03-15T17:00:17.216Z,2.00
2023-03-15T17:02:47.261Z,1.70
2023-03-15T17:05:20.194Z,1.80
2023-03-15T17:07:50.394Z,1.85
2023-03-15T17:10:31.878Z,1.98
2023-03-15T17:13:01.778Z,1.80
2023-03-15T17:15:30.162Z,2.00
2023-03-15T17:17:57.961Z,2.13
2023-03-15T17:20:28.458Z,4.40
2023-03-15T17:23:05.682Z,1.80
2023-03-15T17:25:34.784Z,2.00
2023-03-15T17:28:05.000Z,1.88
2023-03-15T17:30:36.257Z,2.20
2023-03-15T17:33:04.476Z,2.15
2023-03-15T17:35:38.216Z,1.83
2023-03-15T17:38:11.619Z,2.10
2023-03-15T17:40:39.056Z,2.13
2023-03-15T17:43:07.429Z,2.20
2023-03-15T17:45:40.620Z,2.40
2023-03-15T17:50:38.298Z,1.88
2023-03-15T17:53:17.775Z,2.13
2023-03-15T17:55:46.613Z,2.38
2023-03-15T17:58:25.372Z,2.13
2023-03-15T18:00:57.088Z,2.90
2023-03-15T18:03:25.188Z,2.45
2023-03-15T18:05:54.458Z,2.88
2023-03-15T18:08:25.010Z,3.05
2023-03-15T18:10:52.201Z,3.05
2023-03-15T18:13:23.819Z,3.03
2023-03-15T18:15:57.374Z,2.53
2023-03-15T18:18:24.562Z,3.10
2023-03-15T18:20:51.622Z,2.88
2023-03-15T18:23:19.776Z,2.90
2023-03-15T18:25:48.426Z,2.95
2023-03-15T18:28:15.568Z,3.75
2023-03-15T18:30:45.776Z,3.40
2023-03-15T18:33:15.689Z,3.97
2023-03-15T18:35:42.793Z,3.00
2023-03-15T18:38:12.032Z,3.33
2023-03-15T18:40:39.144Z,3.05
2023-03-15T18:43:11.708Z,3.38
2023-03-15T18:48:08.066Z,3.33
2023-03-15T18:50:35.441Z,3.60
2023-03-15T18:53:06.277Z,3.05
2023-03-15T18:55:34.744Z,3.10
2023-03-15T18:58:04.063Z,3.55
2023-03-15T19:00:36.096Z,3.17
2023-03-15T19:03:09.498Z,3.17
2023-03-15T19:05:38.256Z,3.53
2023-03-15T19:08:08.453Z,3.42
2023-03-15T19:10:36.443Z,3.58
2023-03-15T19:13:05.420Z,4.43
2023-03-15T19:15:33.549Z,3.53
2023-03-15T19:18:03.955Z,3.58
2023-03-15T19:20:30.899Z,2.75
2023-03-15T19:23:17.156Z,3.60
2023-03-15T19:25:46.881Z,3.50
2023-03-15T19:28:16.529Z,3.67
2023-03-15T19:30:44.785Z,3.53
2023-03-15T19:33:13.242Z,3.58
2023-03-15T19:35:40.264Z,3.00
2023-03-15T19:38:08.231Z,2.70
2023-03-15T19:40:36.636Z,2.90
2023-03-15T19:43:03.779Z,2.95
2023-03-15T19:45:30.954Z,2.85
2023-03-15T19:47:58.379Z,2.60
2023-03-15T19:50:31.509Z,2.75
2023-03-15T19:53:00.727Z,2.72
2023-03-15T19:55:30.381Z,3.00
2023-03-15T19:57:59.508Z,3.08
2023-03-15T20:00:26.689Z,2.72
2023-03-15T20:02:55.653Z,3.10
2023-03-15T20:05:25.895Z,4.25
2023-03-15T20:07:54.209Z,2.92
2023-03-15T20:10:21.715Z,2.90
2023-03-15T20:12:49.851Z,2.85
2023-03-15T20:15:19.154Z,3.40
2023-03-15T20:17:46.572Z,3.45
2023-03-15T20:20:14.599Z,4.38
2023-03-15T20:22:43.588Z,3.15
2023-03-15T20:25:13.832Z,3.53
2023-03-15T20:27:41.028Z,3.53
2023-03-15T20:30:10.315Z,3.42
2023-03-15T20:32:39.385Z,3.53
2023-03-15T20:35:13.918Z,3.28
2023-03-15T20:37:45.490Z,3.25
2023-03-15T20:40:15.413Z,3.80
2023-03-15T20:42:43.048Z,3.67
2023-03-15T20:45:12.998Z,3.70
2023-03-15T20:47:42.330Z,3.80
2023-03-15T20:50:11.771Z,3.80
2023-03-15T20:52:40.980Z,3.33
2023-03-15T20:55:08.654Z,3.72
2023-03-15T20:57:36.659Z,3.75
2023-03-15T21:00:23.615Z,4.22
2023-03-15T21:02:50.985Z,4.00
2023-03-15T21:05:18.555Z,4.28
2023-03-15T21:07:46.266Z,4.45
2023-03-15T21:10:13.915Z,3.80
2023-03-15T21:12:41.353Z,4.35
2023-03-15T21:15:20.479Z,4.15
2023-03-15T21:17:50.685Z,4.43
2023-03-15T21:20:18.207Z,4.63
2023-03-15T21:22:45.087Z,4.40
2023-03-15T21:25:14.906Z,4.63
2023-03-15T21:27:41.867Z,4.95
2023-03-15T21:30:09.784Z,4.38
2023-03-15T21:32:38.347Z,4.75
2023-03-15T21:35:05.904Z,5.35
2023-03-15T21:37:32.947Z,4.43
2023-03-15T21:39:59.851Z,4.47
2023-03-15T21:42:27.352Z,5.45
2023-03-15T21:44:55.640Z,4.78
2023-03-15T21:47:24.566Z,5.22
2023-03-15T21:49:54.346Z,5.20
2023-03-15T21:52:23.068Z,5.70
2023-03-15T21:54:51.650Z,5.97
2023-03-15T21:57:22.087Z,5.60
2023-03-15T21:59:49.755Z,4.80
2023-03-15T22:02:20.900Z,4.70
2023-03-15T22:04:51.816Z,5.60
2023-03-15T22:07:18.844Z,4.72
2023-03-15T22:09:47.802Z,5.63
2023-03-15T22:12:15.576Z,4.97
2023-03-15T22:14:42.937Z,5.05
2023-03-15T22:17:18.996Z,5.55
2023-03-15T22:19:49.004Z,4.80
2023-03-15T22:22:16.280Z,4.85
2023-03-15T22:24:44.026Z,4.85
2023-03-15T22:27:25.847Z,4.95
2023-03-15T22:29:54.375Z,5.18
2023-03-15T22:32:24.146Z,5.68
2023-03-15T22:34:52.932Z,4.90
2023-03-15T22:37:20.016Z,6.03
2023-03-15T22:39:48.701Z,5.15
2023-03-15T22:42:15.823Z,5.60
2023-03-15T22:44:42.840Z,5.43
2023-03-15T22:47:10.026Z,5.18
2023-03-15T22:49:37.162Z,5.07
2023-03-15T22:52:14.544Z,4.90
2023-03-15T22:54:43.819Z,5.47
2023-03-15T22:57:11.433Z,5.00
2023-03-15T22:59:39.553Z,4.07
2023-03-15T23:02:07.705Z,5.25
2023-03-15T23:04:36.650Z,5.43
2023-03-15T23:07:03.635Z,5.13
2023-03-15T23:09:30.815Z,5.22
2023-03-15T23:11:57.932Z,5.32
2023-03-15T23:14:25.050Z,4.25
2023-03-15T23:16:52.331Z,5.00
2023-03-15T23:19:19.637Z,5.03
2023-03-15T23:21:46.625Z,4.78
2023-03-15T23:24:16.386Z,4.72
2023-03-15T23:26:43.983Z,5.03
2023-03-15T23:29:11.123Z,5.20
2023-03-15T23:31:39.778Z,4.90
2023-03-15T23:34:08.436Z,4.80
2023-03-15T23:36:35.970Z,4.43
2023-03-15T23:39:03.644Z,4.38
2023-03-15T23:41:35.897Z,4.70
2023-03-15T23:44:05.334Z,4.55
2023-03-15T23:46:36.169Z,4.45
2023-03-15T23:49:07.336Z,4.13
